Time;durP1;ratioP1;P1;durP2;ratioP2;P2;SDS_P1;SDS_P2;PMS_P1;PMS_P2;Temp;Humidity;BMP_temperature;BMP_pressure;BME280_temperature;BME280_humidity;BME280_pressure;Samples;Min_cycle;Max_cycle;Signal;HPM_P1;HPM_P2
2022/05/19 00:02:12;;;;;;;21.98;16.73;;;16.30;99.90;;;;;;5030399;28;20049;-78
2022/05/19 00:04:38;;;;;;;24.52;16.90;;;16.20;99.90;;;;;;5030331;28;20053;-77
2022/05/19 00:07:04;;;;;;;22.90;17.58;;;16.20;99.90;;;;;;5028656;28;20052;-78
2022/05/19 00:09:30;;;;;;;23.40;17.70;;;16.20;99.90;;;;;;5027690;28;20068;-78
2022/05/19 00:11:59;;;;;;;25.13;17.98;;;16.20;99.90;;;;;;5029298;28;20140;-78
2022/05/19 00:14:25;;;;;;;23.77;17.55;;;16.10;99.90;;;;;;5025098;28;20054;-77
2022/05/19 00:16:52;;;;;;;26.17;18.60;;;16.10;99.90;;;;;;5029394;28;20052;-78
2022/05/19 00:19:18;;;;;;;26.95;19.92;;;16.20;99.90;;;;;;5022725;28;20052;-77
2022/05/19 00:21:43;;;;;;;30.40;20.42;;;16.10;99.90;;;;;;5028346;28;20045;-77
2022/05/19 00:24:10;;;;;;;27.83;18.60;;;16.10;99.90;;;;;;5024217;28;20393;-77
2022/05/19 00:26:36;;;;;;;24.30;17.60;;;16.20;99.90;;;;;;5023387;28;20511;-77
2022/05/19 00:29:02;;;;;;;26.95;19.48;;;16.20;99.90;;;;;;5059331;28;20045;-77
2022/05/19 00:31:29;;;;;;;27.58;18.80;;;16.20;99.90;;;;;;5029008;28;20056;-77
2022/05/19 00:33:55;;;;;;;26.67;19.50;;;16.30;99.90;;;;;;5022471;28;20053;-77
2022/05/19 00:36:21;;;;;;;26.55;19.63;;;16.30;99.90;;;;;;5027224;28;20099;-77
2022/05/19 00:38:47;;;;;;;29.45;22.20;;;16.30;99.90;;;;;;5029246;28;20455;-77
2022/05/19 00:41:14;;;;;;;31.08;23.05;;;16.30;99.90;;;;;;5027366;28;20477;-77
2022/05/19 00:43:44;;;;;;;28.65;22.40;;;16.30;99.90;;;;;;5057741;28;20049;-77
2022/05/19 00:46:28;;;;;;;24.80;21.35;;;16.20;99.90;;;;;;5054699;28;20453;-77
2022/05/19 00:49:05;;;;;;;22.83;18.02;;;16.20;99.90;;;;;;5021309;28;20052;-76
2022/05/19 00:51:50;;;;;;;29.52;20.25;;;16.20;99.90;;;;;;5026265;28;20045;-77
2022/05/19 00:54:17;;;;;;;;;;;16.10;99.90;;;;;;5022404;28;20041;-77
2022/05/19 00:56:54;;;;;;;24.55;18.45;;;16.10;99.90;;;;;;5027687;28;19928;-77
2022/05/19 00:59:33;;;;;;;24.70;18.23;;;16.00;99.90;;;;;;5027033;28;20049;-77
2022/05/19 01:01:59;;;;;;;25.23;19.77;;;16.00;99.90;;;;;;5019817;28;20049;-77
2022/05/19 01:04:35;;;;;;;27.67;23.80;;;15.90;99.90;;;;;;5026121;28;20046;-77
2022/05/19 01:07:08;;;;;;;35.38;26.75;;;15.90;99.90;;;;;;5020914;28;20095;-77
2022/05/19 01:09:37;;;;;;;33.83;26.83;;;15.90;99.90;;;;;;5028588;28;20048;-77
2022/05/19 01:12:04;;;;;;;35.70;24.17;;;15.80;99.90;;;;;;5026656;28;20292;-77
2022/05/19 01:14:32;;;;;;;37.00;28.67;;;15.90;99.90;;;;;;5026404;28;20041;-77
2022/05/19 01:16:58;;;;;;;37.83;28.95;;;15.80;99.90;;;;;;5026791;28;20049;-77
2022/05/19 01:19:31;;;;;;;40.70;32.10;;;15.90;99.90;;;;;;5027593;28;20060;-76
2022/05/19 01:22:08;;;;;;;39.30;30.10;;;15.80;99.90;;;;;;5028574;28;20831;-77
2022/05/19 01:24:43;;;;;;;41.25;33.00;;;15.90;99.90;;;;;;5019476;28;20081;-77
2022/05/19 01:27:08;;;;;;;44.08;32.75;;;15.80;99.90;;;;;;5027220;28;20609;-77
2022/05/19 01:29:34;;;;;;;42.45;32.13;;;15.80;99.90;;;;;;5026950;28;20159;-76
2022/05/19 01:32:02;;;;;;;41.97;33.35;;;15.80;99.90;;;;;;5032122;28;20065;-77
2022/05/19 01:34:31;;;;;;;43.08;33.03;;;15.80;99.90;;;;;;5028293;28;20052;-77
2022/05/19 01:36:58;;;;;;;41.75;33.15;;;15.80;99.90;;;;;;5021657;28;20037;-77
2022/05/19 01:39:26;;;;;;;46.97;34.05;;;15.70;99.90;;;;;;5024700;28;20120;-76
2022/05/19 01:42:17;;;;;;;45.42;34.30;;;15.70;99.90;;;;;;5028908;28;20053;-77
2022/05/19 01:45:11;;;;;;;48.25;36.60;;;15.70;99.90;;;;;;5021250;28;20049;-77
2022/05/19 01:47:41;;;;;;;47.63;35.40;;;15.70;99.90;;;;;;5029694;28;20053;-77
2022/05/19 01:50:36;;;;;;;51.95;35.90;;;15.70;99.90;;;;;;5029617;28;20072;-77
2022/05/19 01:53:26;;;;;;;47.97;36.28;;;15.60;99.90;;;;;;5029914;28;20045;-77
2022/05/19 01:56:09;;;;;;;46.30;36.53;;;15.60;99.90;;;;;;5014524;28;20053;-77
2022/05/19 01:59:02;;;;;;;48.85;36.95;;;15.60;99.90;;;;;;5019367;28;20045;-77
2022/05/19 02:01:28;;;;;;;59.40;42.15;;;15.60;99.90;;;;;;5033762;28;20092;-77
2022/05/19 02:04:17;;;;;;;57.35;43.70;;;15.60;99.90;;;;;;5024989;28;20069;-77
2022/05/19 02:07:04;;;;;;;56.60;46.83;;;15.50;99.90;;;;;;5011356;28;20045;-78
2022/05/19 02:09:59;;;;;;;63.15;48.20;;;15.50;99.90;;;;;;5029830;28;20049;-77
2022/05/19 02:12:27;;;;;;;56.47;46.08;;;15.50;99.90;;;;;;5013969;28;20053;-77
2022/05/19 02:14:58;;;;;;;64.10;48.30;;;15.50;99.90;;;;;;5025378;28;20049;-77
2022/05/19 02:17:25;;;;;;;62.05;48.90;;;15.50;99.90;;;;;;5024873;28;20136;-77
2022/05/19 02:19:57;;;;;;;59.05;47.22;;;15.50;99.90;;;;;;5026842;28;20050;-78
2022/05/19 02:22:28;;;;;;;59.88;48.90;;;15.50;99.90;;;;;;5025716;28;20452;-77
2022/05/19 02:25:01;;;;;;;64.40;50.20;;;15.50;99.90;;;;;;5022866;28;20519;-77
2022/05/19 02:27:36;;;;;;;59.28;47.67;;;15.50;99.90;;;;;;5019627;28;20041;-77
2022/05/19 02:30:07;;;;;;;63.75;49.97;;;15.50;99.90;;;;;;5023114;28;20433;-77
2022/05/19 02:32:35;;;;;;;69.53;50.83;;;15.40;99.90;;;;;;5028515;28;20077;-77
2022/05/19 02:35:01;;;;;;;65.20;51.85;;;15.40;99.90;;;;;;5025077;28;20052;-77
2022/05/19 02:37:27;;;;;;;65.95;51.70;;;15.40;99.90;;;;;;5026657;28;20095;-77
2022/05/19 02:39:53;;;;;;;70.50;52.08;;;15.40;99.90;;;;;;5043396;28;20033;-77
2022/05/19 02:42:18;;;;;;;65.63;53.85;;;15.40;99.90;;;;;;5019953;28;20053;-77
2022/05/19 02:44:44;;;;;;;68.63;55.33;;;15.40;99.90;;;;;;5029985;28;20153;-77
2022/05/19 02:47:10;;;;;;;67.40;54.70;;;15.40;99.90;;;;;;5029746;28;20120;-77
2022/05/19 02:49:35;;;;;;;73.63;57.60;;;15.40;99.90;;;;;;5018609;28;20477;-77
2022/05/19 02:52:01;;;;;;;73.07;56.40;;;15.40;99.90;;;;;;5033190;28;20490;-78
2022/05/19 02:54:26;;;;;;;74.68;56.88;;;15.40;99.90;;;;;;5022843;28;20080;-77
2022/05/19 02:56:52;;;;;;;72.70;58.17;;;15.40;99.90;;;;;;5033484;28;20037;-77
2022/05/19 02:59:17;;;;;;;73.68;58.20;;;15.40;99.90;;;;;;5033138;28;20061;-77
2022/05/19 03:01:43;;;;;;;74.30;57.50;;;15.40;99.90;;;;;;5032346;28;20408;-77
2022/05/19 03:04:09;;;;;;;72.07;58.42;;;15.40;99.90;;;;;;5034213;28;20052;-78
2022/05/19 03:06:34;;;;;;;74.10;59.38;;;15.40;99.90;;;;;;5033668;28;20058;-77
2022/05/19 03:09:00;;;;;;;74.13;59.00;;;15.40;99.90;;;;;;5033173;28;20477;-77
2022/05/19 03:11:25;;;;;;;77.07;59.80;;;15.40;99.90;;;;;;5060467;28;20041;-77
2022/05/19 03:13:51;;;;;;;78.00;59.88;;;15.40;99.90;;;;;;5027176;28;20041;-78
2022/05/19 03:16:16;;;;;;;74.00;59.30;;;15.40;99.90;;;;;;5013504;28;20056;-77
2022/05/19 03:18:42;;;;;;;65.75;53.10;;;15.40;99.90;;;;;;5024667;28;20116;-77
2022/05/19 03:21:08;;;;;;;76.05;57.50;;;15.40;99.90;;;;;;5031270;28;20074;-77
2022/05/19 03:23:33;;;;;;;80.68;60.67;;;15.40;99.90;;;;;;5025135;28;20130;-77
2022/05/19 03:25:59;;;;;;;81.53;60.72;;;15.40;99.90;;;;;;5031649;28;20131;-77
2022/05/19 03:28:24;;;;;;;73.10;58.45;;;15.40;99.90;;;;;;5059088;28;20041;-77
2022/05/19 03:30:50;;;;;;;77.00;59.75;;;15.40;99.90;;;;;;5025797;28;20063;-77
2022/05/19 03:33:16;;;;;;;77.57;59.22;;;15.40;99.90;;;;;;5033854;28;20128;-77
2022/05/19 03:35:43;;;;;;;75.70;59.58;;;15.40;99.90;;;;;;5030088;28;20138;-77
2022/05/19 03:38:10;;;;;;;75.57;57.35;;;15.40;99.90;;;;;;5028991;28;20046;-76
2022/05/19 03:40:35;;;;;;;77.90;59.45;;;15.40;99.90;;;;;;5028305;28;20370;-77
2022/05/19 03:43:01;;;;;;;74.47;59.67;;;15.40;99.90;;;;;;5027084;28;20119;-77
2022/05/19 03:45:26;;;;;;;75.85;59.45;;;15.40;99.90;;;;;;5026969;28;20045;-77
2022/05/19 03:47:52;;;;;;;77.25;57.25;;;15.40;99.90;;;;;;5031887;28;20381;-77
2022/05/19 03:50:18;;;;;;;73.93;56.67;;;15.40;99.90;;;;;;5028879;28;20105;-77
2022/05/19 03:52:44;;;;;;;75.20;56.63;;;15.40;99.90;;;;;;5030783;28;20038;-77
2022/05/19 03:55:14;;;;;;;71.05;56.10;;;15.40;99.90;;;;;;5029517;28;20045;-77
2022/05/19 03:57:41;;;;;;;71.07;55.88;;;15.40;99.90;;;;;;5030943;28;20043;-76
2022/05/19 04:00:10;;;;;;;78.00;57.67;;;15.40;99.90;;;;;;5016006;28;20049;-77
2022/05/19 04:02:36;;;;;;;81.38;58.47;;;15.40;99.90;;;;;;5026857;28;20553;-77
2022/05/19 04:05:03;;;;;;;69.47;54.08;;;15.40;99.90;;;;;;5025915;28;20124;-77
2022/05/19 04:07:29;;;;;;;76.50;56.60;;;15.40;99.90;;;;;;5023331;28;20057;-76
2022/05/19 04:09:54;;;;;;;69.70;57.63;;;15.40;99.90;;;;;;5055552;28;20049;-77
2022/05/19 04:12:21;;;;;;;77.47;58.10;;;15.50;99.90;;;;;;5028017;28;20053;-77
2022/05/19 04:14:47;;;;;;;76.25;57.03;;;15.50;99.90;;;;;;5032355;28;20057;-77
2022/05/19 04:17:12;;;;;;;78.60;58.38;;;15.50;99.90;;;;;;5031167;28;20059;-77
2022/05/19 04:19:38;;;;;;;75.80;56.53;;;15.50;99.90;;;;;;5029426;28;20041;-76
2022/05/19 04:22:04;;;;;;;81.93;56.58;;;15.60;99.90;;;;;;5030549;28;20037;-77
2022/05/19 04:24:29;;;;;;;76.68;55.80;;;15.60;99.90;;;;;;5021535;28;20053;-76
2022/05/19 04:26:55;;;;;;;80.13;57.38;;;15.60;99.90;;;;;;5029914;28;20048;-77
2022/05/19 04:29:20;;;;;;;79.60;55.58;;;15.70;99.90;;;;;;5028082;28;20046;-77
2022/05/19 04:31:46;;;;;;;77.07;54.67;;;15.60;99.90;;;;;;5031762;28;20567;-77
2022/05/19 04:34:11;;;;;;;77.97;55.35;;;15.70;99.90;;;;;;5023259;28;20037;-77
2022/05/19 04:36:37;;;;;;;70.53;54.30;;;15.70;99.90;;;;;;5029433;28;20896;-77
2022/05/19 04:39:03;;;;;;;75.15;55.40;;;15.70;99.90;;;;;;5028548;28;20396;-77
2022/05/19 04:41:29;;;;;;;83.57;56.20;;;15.80;99.90;;;;;;5028765;28;20489;-77
2022/05/19 04:43:54;;;;;;;79.55;58.50;;;15.80;99.90;;;;;;5028217;28;20041;-77
2022/05/19 04:46:20;;;;;;;75.22;54.95;;;15.90;99.90;;;;;;5026418;28;20045;-76
2022/05/19 04:48:46;;;;;;;77.05;56.45;;;16.00;99.90;;;;;;5032601;28;20045;-77
2022/05/19 04:51:11;;;;;;;71.10;54.35;;;16.10;99.90;;;;;;5025968;28;20073;-77
2022/05/19 04:53:37;;;;;;;74.30;55.25;;;16.20;99.90;;;;;;5026861;28;20041;-77
2022/05/19 04:56:03;;;;;;;77.05;54.85;;;16.20;99.90;;;;;;5029841;28;20049;-77
2022/05/19 04:58:28;;;;;;;69.75;55.92;;;16.30;99.90;;;;;;5029336;28;20069;-76
2022/05/19 05:00:54;;;;;;;81.60;55.60;;;16.40;99.90;;;;;;5029928;28;20044;-77
2022/05/19 05:03:21;;;;;;;75.22;56.55;;;16.50;99.90;;;;;;5031218;28;20065;-77
2022/05/19 05:05:47;;;;;;;67.68;51.90;;;16.50;99.90;;;;;;5027750;28;20045;-76
2022/05/19 05:08:13;;;;;;;75.40;54.72;;;16.60;99.90;;;;;;5029363;28;20050;-77
2022/05/19 05:10:39;;;;;;;70.90;52.72;;;16.60;99.90;;;;;;5024703;28;20057;-77
2022/05/19 05:13:07;;;;;;;62.63;48.90;;;16.70;99.90;;;;;;5035129;28;20140;-78
2022/05/19 05:15:34;;;;;;;72.65;54.55;;;16.80;99.90;;;;;;5026187;28;20049;-78
2022/05/19 05:18:00;;;;;;;68.00;50.05;;;16.80;99.90;;;;;;5022443;28;20132;-77
2022/05/19 05:20:25;;;;;;;65.80;49.50;;;16.80;99.90;;;;;;5026666;28;20048;-78
2022/05/19 05:22:51;;;;;;;61.83;47.63;;;16.80;99.90;;;;;;5020265;28;20091;-77
2022/05/19 05:25:17;;;;;;;66.10;48.92;;;16.90;99.90;;;;;;5031814;28;20544;-81
2022/05/19 05:27:45;;;;;;;61.63;46.40;;;17.00;99.90;;;;;;5029569;28;20048;-77
2022/05/19 05:30:13;;;;;;;56.28;41.92;;;17.10;99.90;;;;;;5031147;28;20038;-77
2022/05/19 05:32:40;;;;;;;62.15;46.25;;;17.20;99.90;;;;;;5027756;28;20060;-76
2022/05/19 05:35:08;;;;;;;54.72;43.42;;;17.30;99.90;;;;;;5028930;28;20053;-76
2022/05/19 05:37:34;;;;;;;53.85;42.08;;;17.40;99.90;;;;;;5031754;28;20041;-77
2022/05/19 05:40:01;;;;;;;49.67;41.22;;;17.50;99.90;;;;;;5027331;28;20053;-76
2022/05/19 05:42:27;;;;;;;51.92;39.47;;;17.60;99.90;;;;;;5039196;28;20038;-77
2022/05/19 05:44:52;;;;;;;48.08;39.17;;;17.60;99.90;;;;;;5023576;28;20060;-82
2022/05/19 05:47:19;;;;;;;48.60;38.45;;;17.70;99.90;;;;;;5037587;28;20049;-82
2022/05/19 05:49:45;;;;;;;48.30;35.42;;;17.80;99.90;;;;;;5032176;28;20041;-83
2022/05/19 05:52:11;;;;;;;44.85;34.22;;;17.90;99.90;;;;;;5035555;28;20203;-79
2022/05/19 05:54:40;;;;;;;45.20;33.00;;;18.00;99.90;;;;;;5037643;28;20107;-81
2022/05/19 05:57:07;;;;;;;43.92;32.47;;;18.20;99.90;;;;;;5046862;28;20451;-75
2022/05/19 05:59:32;;;;;;;39.65;31.25;;;18.20;99.90;;;;;;5029712;28;20046;-78
2022/05/19 06:01:58;;;;;;;37.53;26.85;;;18.40;99.90;;;;;;5032280;28;20113;-81
2022/05/19 06:04:24;;;;;;;33.92;26.77;;;18.50;99.90;;;;;;5042199;28;20044;-77
2022/05/19 06:06:49;;;;;;;34.78;24.33;;;18.70;99.90;;;;;;5036054;28;20123;-73
2022/05/19 06:09:15;;;;;;;30.52;22.83;;;18.80;99.90;;;;;;5026168;28;20041;-76
2022/05/19 06:11:42;;;;;;;31.48;23.65;;;18.90;99.90;;;;;;5029511;28;20053;-81
2022/05/19 06:14:08;;;;;;;30.30;22.23;;;18.90;99.90;;;;;;5036505;28;20409;-80
2022/05/19 06:16:34;;;;;;;28.30;22.88;;;19.10;99.90;;;;;;5022756;28;20046;-79
2022/05/19 06:19:00;;;;;;;29.38;22.05;;;19.20;99.90;;;;;;5034328;28;20074;-81
2022/05/19 06:21:26;;;;;;;29.75;22.48;;;19.40;99.90;;;;;;5042013;28;20128;-79
2022/05/19 06:23:51;;;;;;;29.90;22.55;;;19.40;99.90;;;;;;5031475;28;20140;-78
2022/05/19 06:26:17;;;;;;;27.30;22.08;;;19.50;99.90;;;;;;5036274;28;20120;-76
2022/05/19 06:28:43;;;;;;;31.13;22.60;;;19.70;99.90;;;;;;5034696;28;20393;-76
2022/05/19 06:31:09;;;;;;;28.17;20.63;;;19.70;99.90;;;;;;5040919;28;20983;-76
2022/05/19 06:33:36;;;;;;;24.08;20.27;;;19.70;99.90;;;;;;5049513;28;20099;-76
2022/05/19 06:36:09;;;;;;;29.75;20.98;;;19.80;99.90;;;;;;5041123;28;20065;-74
2022/05/19 06:38:35;;;;;;;27.08;19.85;;;19.80;99.90;;;;;;5025258;28;20096;-79
2022/05/19 06:43:48;;;;;;;27.30;20.42;;;19.90;99.90;;;;;;5030941;28;20135;-78
2022/05/19 06:46:14;;;;;;;23.45;19.15;;;19.90;99.90;;;;;;5029394;28;20050;-79
2022/05/19 06:48:40;;;;;;;27.90;20.17;;;20.00;99.90;;;;;;5031226;28;20037;-80
2022/05/19 06:51:05;;;;;;;27.13;20.48;;;20.10;99.90;;;;;;5035341;28;20181;-80
2022/05/19 06:53:31;;;;;;;26.63;20.08;;;20.20;99.90;;;;;;5032113;28;20495;-79
2022/05/19 06:55:56;;;;;;;26.55;21.17;;;20.20;99.90;;;;;;5030062;28;20424;-79
2022/05/19 06:58:22;;;;;;;26.35;20.45;;;20.20;99.90;;;;;;5032865;28;20041;-78
2022/05/19 07:00:48;;;;;;;28.92;19.77;;;20.10;99.90;;;;;;5029935;28;20052;-78
2022/05/19 07:03:14;;;;;;;26.13;21.17;;;20.00;99.90;;;;;;5032154;28;20099;-78
2022/05/19 07:05:40;;;;;;;26.73;20.48;;;19.90;99.90;;;;;;5026164;28;20128;-78
2022/05/19 07:08:06;;;;;;;29.05;21.02;;;19.80;99.90;;;;;;5017832;28;20049;-78
2022/05/19 07:10:33;;;;;;;29.75;21.98;;;19.70;99.90;;;;;;5033665;28;20096;-78
2022/05/19 07:12:59;;;;;;;27.30;20.88;;;19.70;99.90;;;;;;5031336;28;20056;-78
2022/05/19 07:15:27;;;;;;;28.38;22.35;;;19.60;99.90;;;;;;5019015;28;20045;-78
2022/05/19 07:17:53;;;;;;;29.00;22.83;;;19.60;99.90;;;;;;5033254;28;20412;-78
2022/05/19 07:23:05;;;;;;;25.00;21.67;;;19.40;99.90;;;;;;5026763;28;20140;-78
2022/05/19 07:25:30;;;;;;;29.10;21.13;;;19.40;99.90;;;;;;5024385;28;20077;-78
2022/05/19 07:27:56;;;;;;;26.25;20.10;;;19.30;99.90;;;;;;5017444;28;20598;-78
2022/05/19 07:30:22;;;;;;;30.52;22.73;;;19.30;99.90;;;;;;5031609;28;20516;-78
2022/05/19 07:32:48;;;;;;;29.75;23.38;;;19.20;99.90;;;;;;5036372;28;20080;-79
2022/05/19 07:35:15;;;;;;;29.45;23.50;;;19.10;99.90;;;;;;5032359;28;20069;-78
2022/05/19 07:37:41;;;;;;;31.08;24.25;;;19.10;99.90;;;;;;5026241;28;20096;-78
2022/05/19 07:40:07;;;;;;;30.33;24.83;;;19.10;99.90;;;;;;5051567;28;20480;-78
2022/05/19 07:42:33;;;;;;;29.00;23.42;;;19.00;99.90;;;;;;5043496;28;20048;-78
2022/05/19 07:44:59;;;;;;;29.15;24.55;;;19.00;99.90;;;;;;5031446;28;20120;-78
2022/05/19 07:47:25;;;;;;;25.73;22.23;;;19.00;99.90;;;;;;5031575;28;20477;-78
2022/05/19 07:49:54;;;;;;;33.97;25.23;;;19.00;99.90;;;;;;5032777;28;20064;-77
2022/05/19 07:52:20;;;;;;;29.27;25.10;;;19.00;99.90;;;;;;5032015;28;20041;-77
2022/05/19 07:54:46;;;;;;;35.35;25.88;;;19.00;99.90;;;;;;5030653;28;20500;-78
2022/05/19 07:57:12;;;;;;;28.98;22.90;;;19.00;99.90;;;;;;5030563;28;20103;-78
2022/05/19 07:59:37;;;;;;;29.67;23.85;;;19.00;99.90;;;;;;5042037;28;20049;-78
2022/05/19 08:02:04;;;;;;;28.88;24.98;;;19.00;99.90;;;;;;5026021;28;20527;-79
2022/05/19 08:04:29;;;;;;;28.27;25.13;;;19.00;99.90;;;;;;5022216;28;20781;-80
2022/05/19 08:06:56;;;;;;;31.98;23.95;;;18.90;99.90;;;;;;5030577;28;20071;-81
2022/05/19 08:12:06;;;;;;;;;;;19.00;99.90;;;;;;5025270;28;20502;-79
2022/05/19 08:17:18;;;;;;;25.92;22.30;;;19.20;99.90;;;;;;5035030;28;20057;-81
2022/05/19 08:19:45;;;;;;;26.85;22.15;;;19.20;99.90;;;;;;5026160;28;20038;-80
2022/05/19 08:22:13;;;;;;;26.90;21.38;;;19.30;99.90;;;;;;5042281;28;20057;-81
2022/05/19 08:24:39;;;;;;;25.45;21.88;;;19.50;99.90;;;;;;5030323;28;20510;-80
2022/05/19 08:27:06;;;;;;;26.65;20.77;;;19.50;99.90;;;;;;5042043;28;20603;-80
2022/05/19 08:29:32;;;;;;;24.80;20.52;;;19.60;99.90;;;;;;5034837;28;20045;-81
2022/05/19 08:31:58;;;;;;;25.23;20.67;;;19.60;99.90;;;;;;5038619;28;20059;-81
2022/05/19 08:34:23;;;;;;;24.17;21.15;;;19.60;99.90;;;;;;5029343;28;20468;-80
2022/05/19 08:36:50;;;;;;;26.08;21.02;;;19.60;99.90;;;;;;5031744;28;20056;-81
2022/05/19 08:39:18;;;;;;;26.05;21.00;;;19.60;99.90;;;;;;5029555;28;20051;-81
2022/05/19 08:41:55;;;;;;;25.05;20.63;;;19.60;99.90;;;;;;5020445;28;20128;-80
2022/05/19 08:44:45;;;;;;;24.50;19.45;;;19.60;99.90;;;;;;5029135;28;20052;-81
2022/05/19 08:47:15;;;;;;;23.00;19.27;;;19.70;99.90;;;;;;5020013;28;20045;-81
2022/05/19 08:50:03;;;;;;;24.15;19.58;;;19.80;99.90;;;;;;5012337;28;20054;-81
2022/05/19 08:52:46;;;;;;;23.20;18.98;;;19.80;99.90;;;;;;5018893;28;20061;-81
2022/05/19 08:55:15;;;;;;;21.10;18.15;;;19.90;99.90;;;;;;5062921;28;20111;-81
2022/05/19 08:57:54;;;;;;;23.98;18.45;;;19.90;99.90;;;;;;5026843;28;20045;-81
2022/05/19 09:00:30;;;;;;;24.67;19.58;;;20.00;99.90;;;;;;5029291;28;20424;-79
2022/05/19 09:02:56;;;;;;;24.52;19.40;;;20.10;99.90;;;;;;5024374;28;20045;-79
2022/05/19 09:05:52;;;;;;;23.85;18.90;;;20.20;99.90;;;;;;5011649;28;20045;-78
2022/05/19 09:08:45;;;;;;;22.35;18.25;;;20.30;99.90;;;;;;5017378;28;20042;-79
2022/05/19 09:11:30;;;;;;;22.95;19.30;;;20.40;99.90;;;;;;5030491;28;20140;-77
2022/05/19 09:13:58;;;;;;;;;;;20.60;99.90;;;;;;5044180;28;20064;-77
2022/05/19 09:16:29;;;;;;;22.05;18.25;;;20.60;99.90;;;;;;5044586;28;19931;-78
2022/05/19 09:19:04;;;;;;;20.17;17.95;;;20.70;99.90;;;;;;5029953;28;20041;-78
2022/05/19 09:21:30;;;;;;;25.88;19.08;;;20.80;99.90;;;;;;5029225;28;20048;-77
2022/05/19 09:23:55;;;;;;;22.33;17.90;;;20.90;99.90;;;;;;5025195;28;20392;-77
2022/05/19 09:26:49;;;;;;;25.20;19.27;;;20.90;99.90;;;;;;5032559;28;20541;-75
2022/05/19 09:29:23;;;;;;;24.42;18.55;;;21.00;99.90;;;;;;5030679;28;20497;-76
2022/05/19 09:31:55;;;;;;;24.38;18.40;;;21.10;99.90;;;;;;5034913;28;20192;-75
2022/05/19 09:34:27;;;;;;;21.10;18.33;;;21.20;99.90;;;;;;5030822;28;20045;-76
2022/05/19 09:37:15;;;;;;;21.60;17.48;;;21.30;99.90;;;;;;5056290;28;20528;-79
2022/05/19 09:39:58;;;;;;;19.77;16.75;;;21.40;99.90;;;;;;5011492;28;20048;-78
2022/05/19 09:42:34;;;;;;;19.35;16.02;;;21.50;99.90;;;;;;5042463;28;20592;-78
2022/05/19 09:45:01;;;;;;;17.88;14.43;;;21.60;99.90;;;;;;5031066;28;20045;-78
2022/05/19 09:47:36;;;;;;;17.88;13.07;;;21.70;99.90;;;;;;5027797;28;20048;-78
2022/05/19 09:50:17;;;;;;;17.40;13.88;;;21.80;99.90;;;;;;5062427;28;20041;-78
2022/05/19 09:52:44;;;;;;;17.48;14.65;;;21.90;99.90;;;;;;5030035;28;20370;-77
2022/05/19 09:55:13;;;;;;;16.67;13.80;;;22.00;99.90;;;;;;5031590;28;20085;-77
2022/05/19 09:57:56;;;;;;;15.27;13.68;;;22.00;99.90;;;;;;5023356;28;20045;-76
2022/05/19 10:00:44;;;;;;;16.17;13.73;;;22.10;99.90;;;;;;5047601;28;20427;-77
2022/05/19 10:03:38;;;;;;;16.40;14.02;;;22.10;99.90;;;;;;5038842;28;20115;-79
2022/05/19 10:06:15;;;;;;;17.65;14.10;;;22.20;99.90;;;;;;5030659;28;20049;-79
2022/05/19 10:08:43;;;;;;;15.70;13.38;;;22.30;99.90;;;;;;5023339;28;20037;-77
2022/05/19 10:11:18;;;;;;;15.45;12.52;;;22.40;99.90;;;;;;5050409;28;20111;-77
2022/05/19 10:13:51;;;;;;;15.93;13.07;;;22.50;99.90;;;;;;5036945;28;20128;-76
2022/05/19 10:16:50;;;;;;;17.13;12.93;;;22.70;99.90;;;;;;5031020;28;20063;-77
2022/05/19 10:19:36;;;;;;;14.40;11.85;;;22.80;99.90;;;;;;5030753;28;20045;-76
2022/05/19 10:22:07;;;;;;;12.80;11.00;;;22.90;99.90;;;;;;5030953;28;20389;-75
2022/05/19 10:24:39;;;;;;;13.77;11.63;;;23.10;99.90;;;;;;5024655;28;20057;-76
2022/05/19 10:33:38;;;;;;;13.60;10.98;;;23.30;99.90;;;;;;5033334;28;20041;-74
2022/05/19 10:36:22;;;;;;;14.25;11.85;;;23.30;99.90;;;;;;4996173;28;20045;-74
2022/05/19 10:39:04;;;;;;;12.43;10.05;;;23.30;99.90;;;;;;5029664;28;20049;-75
2022/05/19 10:42:01;;;;;;;16.60;11.65;;;23.30;99.90;;;;;;5028034;28;20052;-78
2022/05/19 10:44:33;;;;;;;16.15;11.52;;;23.20;99.90;;;;;;5029895;28;20836;-82
2022/05/19 10:47:32;;;;;;;15.32;11.73;;;23.20;99.90;;;;;;5028841;28;20041;-76
2022/05/19 10:50:07;;;;;;;13.85;11.07;;;23.20;99.90;;;;;;5032656;28;20045;-74
2022/05/19 10:53:01;;;;;;;14.75;10.90;;;23.20;99.90;;;;;;5028271;28;20809;-75
2022/05/19 10:55:31;;;;;;;;;;;23.30;99.90;;;;;;5025287;28;20060;-75
2022/05/19 10:58:09;;;;;;;17.13;14.13;;;23.40;99.90;;;;;;5030500;28;19936;-75
2022/05/19 11:00:55;;;;;;;17.77;13.23;;;23.60;99.90;;;;;;5046781;28;20087;-76
2022/05/19 11:03:50;;;;;;;15.43;13.05;;;23.80;99.90;;;;;;5034646;28;20048;-75
2022/05/19 11:06:46;;;;;;;15.38;13.05;;;23.90;99.90;;;;;;5032885;28;20045;-75
2022/05/19 11:09:30;;;;;;;15.95;13.25;;;24.00;99.90;;;;;;5022700;28;20038;-75
2022/05/19 11:12:20;;;;;;;17.60;15.48;;;24.10;99.90;;;;;;5033176;28;20059;-74
2022/05/19 11:14:57;;;;;;;19.67;15.68;;;24.20;99.90;;;;;;5037907;28;20033;-74
2022/05/19 11:18:15;;;;;;;18.67;15.90;;;24.20;99.90;;;;;;5035363;28;20044;-75
2022/05/19 11:21:06;;;;;;;22.02;16.50;;;24.30;99.90;;;;;;4993374;28;20187;-75
2022/05/19 11:23:43;;;;;;;19.35;15.57;;;24.40;99.90;;;;;;5019532;28;20037;-75
2022/05/19 11:26:29;;;;;;;19.38;17.27;;;24.50;99.90;;;;;;5032406;28;20079;-76
2022/05/19 11:29:06;;;;;;;20.33;17.15;;;24.40;99.90;;;;;;5032885;28;20049;-76
2022/05/19 11:32:01;;;;;;;21.10;18.88;;;24.40;99.90;;;;;;5026184;28;20496;-75
2022/05/19 11:34:43;;;;;;;19.30;17.25;;;24.60;99.90;;;;;;5024535;28;20061;-75
2022/05/19 11:37:31;;;;;;;20.33;17.15;;;24.80;99.90;;;;;;5031753;28;20072;-75
2022/05/19 11:40:17;;;;;;;19.48;17.38;;;25.10;99.90;;;;;;5031750;28;20587;-74
2022/05/19 11:43:04;;;;;;;20.65;18.35;;;25.30;99.90;;;;;;5025716;28;20396;-74
2022/05/19 11:46:01;;;;;;;15.50;13.90;;;25.60;99.90;;;;;;5039311;28;20136;-74
2022/05/19 11:57:23;;;;;;;15.27;12.00;;;26.30;99.90;;;;;;5032295;28;20061;-74
2022/05/19 11:59:52;;;;;;;15.80;11.80;;;26.30;99.90;;;;;;5032215;28;20404;-74
2022/05/19 12:02:26;;;;;;;18.10;12.32;;;26.20;99.90;;;;;;5030655;28;20073;-74
2022/05/19 12:04:58;;;;;;;11.93;9.63;;;26.20;99.90;;;;;;5020100;28;20056;-74
2022/05/19 12:07:41;;;;;;;13.57;9.52;;;26.20;99.90;;;;;;5028503;28;20041;-74
2022/05/19 12:10:14;;;;;;;16.35;11.65;;;26.10;99.90;;;;;;5032195;28;20047;-74
2022/05/19 12:12:48;;;;;;;13.45;10.60;;;26.10;99.90;;;;;;5017324;28;20041;-74
2022/05/19 12:15:27;;;;;;;14.27;11.52;;;26.10;99.90;;;;;;5011000;28;20803;-74
2022/05/19 12:18:09;;;;;;;13.95;10.38;;;26.00;99.90;;;;;;5029917;28;20713;-74
2022/05/19 12:20:55;;;;;;;14.85;9.95;;;26.00;99.90;;;;;;5027039;28;20129;-74
2022/05/19 12:23:26;;;;;;;13.05;9.55;;;25.90;99.90;;;;;;5009884;28;20042;-75
2022/05/19 12:26:04;;;;;;;14.27;8.70;;;25.90;99.90;;;;;;5031406;28;20095;-84
2022/05/19 12:28:39;;;;;;;15.05;8.40;;;25.80;99.90;;;;;;5064217;28;20060;-79
2022/05/19 12:34:24;;;;;;;13.25;8.50;;;25.80;99.90;;;;;;5020768;28;20053;-80
2022/05/19 12:37:08;;;;;;;12.20;8.32;;;25.80;99.90;;;;;;5029993;28;20497;-80
2022/05/19 12:39:50;;;;;;;12.17;7.87;;;25.70;99.90;;;;;;5031585;28;20033;-78
2022/05/19 12:42:18;;;;;;;13.00;8.07;;;25.60;99.90;;;;;;5029873;28;20315;-89
2022/05/19 12:44:50;;;;;;;11.50;7.40;;;25.50;99.90;;;;;;5037733;28;20044;-88
2022/05/19 12:47:16;;;;;;;9.95;8.25;;;25.40;99.90;;;;;;5050955;28;20048;-87
2022/05/19 12:50:20;;;;;;;12.35;8.07;;;25.30;99.90;;;;;;5049990;28;20041;-87
2022/05/19 12:52:54;;;;;;;11.20;7.43;;;25.20;99.90;;;;;;4995058;28;20140;-86
2022/05/19 12:55:23;;;;;;;10.20;7.70;;;25.00;99.90;;;;;;5033768;28;20401;-88
2022/05/19 12:57:50;;;;;;;9.82;6.70;;;25.00;99.90;;;;;;5032300;28;20227;-85
2022/05/19 13:00:34;;;;;;;10.02;6.40;;;24.80;99.90;;;;;;5031108;28;20408;-83
2022/05/19 13:03:04;;;;;;;10.63;6.80;;;24.80;99.90;;;;;;5033243;28;20104;-86
2022/05/19 13:05:45;;;;;;;10.73;7.45;;;24.60;99.90;;;;;;5029501;28;20401;-82
2022/05/19 13:08:25;;;;;;;10.48;7.85;;;24.60;99.90;;;;;;5030840;28;20057;-83
2022/05/19 13:10:52;;;;;;;18.77;8.13;;;24.40;99.90;;;;;;5038359;28;20037;-82
2022/05/19 13:13:24;;;;;;;9.50;7.00;;;24.40;99.90;;;;;;5046510;28;20053;-83
2022/05/19 13:15:54;;;;;;;13.25;8.57;;;24.20;99.90;;;;;;5034787;28;20160;-85
2022/05/19 13:18:26;;;;;;;14.63;9.15;;;24.10;99.90;;;;;;5030450;28;20061;-83
2022/05/19 13:21:02;;;;;;;17.65;8.50;;;23.90;99.90;;;;;;5025238;28;20128;-90